TUI4XC EDDS-EDDM
Flight info
| Callsign | TUI4XC |
|---|---|
| Flight time | 0h 27m |
| Altitude | 17000 |
| Route | ABTAL4H ABTAL L173 RIXED Y161 RIDAR Z98 WLD T104 ROKIL ROKIL1A |
| Aircraft | B738/M-SDE2E3FGHIRWXY/LB1 |
Departure
| Time | 2026-05-01 15:03 |
|---|---|
| Airport | Stuttgart Airport (EDDS) |
Arrival
| Time | 2026-05-01 15:31 |
|---|---|
| Airport | Munich Airport (EDDM) |
| Time | Latitude | Longitude | Altitude | Speed | Heading |
|---|---|---|---|---|---|
| 2026-05-01 13:58 | 48.68935 | 9.20153 | 1284 ft | 0 kts | 163° |
| 2026-05-01 15:00 | 48.68933 | 9.20154 | 1284 ft | 1 kts | 161° |
| 2026-05-01 15:00 | 48.68879 | 9.20156 | 1284 ft | 6 kts | 214° |
| 2026-05-01 15:01 | 48.68858 | 9.20121 | 1284 ft | 3 kts | 245° |
| 2026-05-01 15:01 | 48.68839 | 9.20042 | 1284 ft | 12 kts | 243° |
| 2026-05-01 15:01 | 48.68761 | 9.19976 | 1284 ft | 8 kts | 174° |
| 2026-05-01 15:01 | 48.68720 | 9.19988 | 1284 ft | 4 kts | 163° |
| 2026-05-01 15:02 | 48.68693 | 9.19996 | 1284 ft | 5 kts | 171° |
| 2026-05-01 15:02 | 48.68657 | 9.20004 | 1284 ft | 9 kts | 170° |
| 2026-05-01 15:02 | 48.68590 | 9.20101 | 1284 ft | 10 kts | 77° |
| 2026-05-01 15:02 | 48.68618 | 9.20244 | 1284 ft | 19 kts | 71° |
| 2026-05-01 15:03 | 48.68693 | 9.20636 | 1284 ft | 56 kts | 78° |
| 2026-05-01 15:03 | 48.68843 | 9.21562 | 1284 ft | 133 kts | 79° |
| 2026-05-01 15:03 | 48.69112 | 9.23218 | 1539 ft | 185 kts | 71° |
| 2026-05-01 15:03 | 48.69514 | 9.25248 | 2107 ft | 218 kts | 73° |
| 2026-05-01 15:04 | 48.70023 | 9.27519 | 2332 ft | 245 kts | 74° |
| 2026-05-01 15:04 | 48.70511 | 9.30007 | 3250 ft | 247 kts | 76° |
| 2026-05-01 15:04 | 48.70964 | 9.32512 | 4230 ft | 255 kts | 76° |
| 2026-05-01 15:04 | 48.71432 | 9.35092 | 5275 ft | 260 kts | 76° |
| 2026-05-01 15:05 | 48.71919 | 9.37712 | 6279 ft | 266 kts | 75° |
| 2026-05-01 15:05 | 48.72425 | 9.40390 | 7337 ft | 269 kts | 75° |
| 2026-05-01 15:05 | 48.72527 | 9.40925 | 7533 ft | 270 kts | 75° |
| 2026-05-01 15:06 | 48.72998 | 9.43413 | 8385 ft | 276 kts | 75° |
| 2026-05-01 15:06 | 48.73526 | 9.46200 | 9401 ft | 278 kts | 75° |
| 2026-05-01 15:06 | 48.74054 | 9.49004 | 10356 ft | 283 kts | 75° |
| 2026-05-01 15:07 | 48.74602 | 9.51929 | 11076 ft | 296 kts | 75° |
| 2026-05-01 15:07 | 48.75175 | 9.54988 | 11633 ft | 313 kts | 74° |
| 2026-05-01 15:07 | 48.75780 | 9.58240 | 12011 ft | 334 kts | 75° |
| 2026-05-01 15:07 | 48.76419 | 9.61678 | 12379 ft | 340 kts | 74° |
| 2026-05-01 15:08 | 48.77070 | 9.65153 | 12749 ft | 341 kts | 75° |
| 2026-05-01 15:08 | 48.77720 | 9.68623 | 13122 ft | 343 kts | 75° |
| 2026-05-01 15:08 | 48.78371 | 9.72111 | 13489 ft | 345 kts | 75° |
| 2026-05-01 15:08 | 48.79017 | 9.75581 | 13859 ft | 345 kts | 75° |
| 2026-05-01 15:09 | 48.79674 | 9.79125 | 14235 ft | 346 kts | 74° |
| 2026-05-01 15:09 | 48.80321 | 9.82622 | 14610 ft | 348 kts | 75° |
| 2026-05-01 15:09 | 48.80977 | 9.86180 | 14994 ft | 351 kts | 75° |
| 2026-05-01 15:09 | 48.81645 | 9.89809 | 15377 ft | 368 kts | 75° |
| 2026-05-01 15:10 | 48.82348 | 9.93634 | 15766 ft | 376 kts | 75° |
| 2026-05-01 15:10 | 48.83754 | 10.01310 | 16521 ft | 379 kts | 75° |
| 2026-05-01 15:10 | 48.84447 | 10.05148 | 16811 ft | 381 kts | 76° |
| 2026-05-01 15:11 | 48.84999 | 10.09084 | 17248 ft | 385 kts | 81° |
| 2026-05-01 15:11 | 48.85102 | 10.16915 | 17283 ft | 358 kts | 95° |
| 2026-05-01 15:11 | 48.84819 | 10.20630 | 17279 ft | 359 kts | 97° |
| 2026-05-01 15:12 | 48.84475 | 10.24388 | 17275 ft | 360 kts | 97° |
| 2026-05-01 15:12 | 48.83782 | 10.31912 | 17278 ft | 359 kts | 96° |
| 2026-05-01 15:12 | 48.83452 | 10.35675 | 17277 ft | 360 kts | 97° |
| 2026-05-01 15:13 | 48.80488 | 10.45944 | 17280 ft | 364 kts | 128° |
| 2026-05-01 15:14 | 48.77004 | 10.51565 | 17272 ft | 366 kts | 131° |
| 2026-05-01 15:14 | 48.75215 | 10.54339 | 17273 ft | 366 kts | 131° |
| 2026-05-01 15:14 | 48.71680 | 10.59874 | 17271 ft | 366 kts | 131° |
| 2026-05-01 15:15 | 48.68157 | 10.65461 | 17273 ft | 366 kts | 131° |
| 2026-05-01 15:15 | 48.64661 | 10.71017 | 17279 ft | 366 kts | 131° |
| 2026-05-01 15:16 | 48.61217 | 10.76494 | 17066 ft | 345 kts | 130° |
| 2026-05-01 15:16 | 48.58887 | 10.82472 | 16237 ft | 329 kts | 101° |
| 2026-05-01 15:17 | 48.58537 | 10.89250 | 15238 ft | 324 kts | 90° |
| 2026-05-01 15:18 | 48.58316 | 10.99317 | 13794 ft | 317 kts | 91° |
| 2026-05-01 15:18 | 48.58229 | 11.02619 | 13308 ft | 315 kts | 91° |
| 2026-05-01 15:19 | 48.57404 | 11.12263 | 11965 ft | 311 kts | 115° |
| 2026-05-01 15:19 | 48.54316 | 11.16676 | 11350 ft | 302 kts | 142° |
| 2026-05-01 15:19 | 48.52783 | 11.18697 | 11167 ft | 287 kts | 124° |
| 2026-05-01 15:20 | 48.51978 | 11.24090 | 10721 ft | 266 kts | 80° |
| 2026-05-01 15:20 | 48.52349 | 11.26839 | 10360 ft | 264 kts | 77° |
| 2026-05-01 15:20 | 48.52742 | 11.29513 | 10320 ft | 264 kts | 77° |
| 2026-05-01 15:21 | 48.53138 | 11.32257 | 10186 ft | 268 kts | 77° |
| 2026-05-01 15:21 | 48.53527 | 11.34991 | 9926 ft | 265 kts | 77° |
| 2026-05-01 15:21 | 48.53908 | 11.37667 | 9684 ft | 263 kts | 77° |
| 2026-05-01 15:21 | 48.54290 | 11.40367 | 9314 ft | 266 kts | 78° |
| 2026-05-01 15:22 | 48.55079 | 11.45945 | 7635 ft | 279 kts | 78° |
| 2026-05-01 15:22 | 48.55421 | 11.48791 | 6770 ft | 283 kts | 84° |
| 2026-05-01 15:22 | 48.55328 | 11.51756 | 5723 ft | 292 kts | 105° |
| 2026-05-01 15:23 | 48.54316 | 11.54375 | 4701 ft | 300 kts | 135° |
| 2026-05-01 15:23 | 48.52563 | 11.55957 | 4316 ft | 286 kts | 156° |
| 2026-05-01 15:23 | 48.50725 | 11.56657 | 4286 ft | 263 kts | 171° |
| 2026-05-01 15:23 | 48.48906 | 11.56411 | 4300 ft | 263 kts | 191° |
| 2026-05-01 15:24 | 48.47142 | 11.55579 | 4301 ft | 263 kts | 195° |
| 2026-05-01 15:24 | 48.45412 | 11.54693 | 4297 ft | 262 kts | 194° |
| 2026-05-01 15:24 | 48.43682 | 11.53859 | 4295 ft | 262 kts | 193° |
| 2026-05-01 15:24 | 48.41943 | 11.53068 | 4293 ft | 262 kts | 192° |
| 2026-05-01 15:25 | 48.40189 | 11.52292 | 4290 ft | 262 kts | 192° |
| 2026-05-01 15:25 | 48.38403 | 11.51761 | 4292 ft | 259 kts | 178° |
| 2026-05-01 15:25 | 48.36669 | 11.52223 | 4289 ft | 247 kts | 147° |
| 2026-05-01 15:25 | 48.35496 | 11.53804 | 4300 ft | 215 kts | 119° |
| 2026-05-01 15:26 | 48.34919 | 11.55729 | 4239 ft | 190 kts | 101° |
| 2026-05-01 15:26 | 48.34819 | 11.57654 | 3962 ft | 181 kts | 86° |
| 2026-05-01 15:26 | 48.34936 | 11.59479 | 3717 ft | 168 kts | 84° |
| 2026-05-01 15:26 | 48.35053 | 11.61110 | 3532 ft | 146 kts | 83° |
| 2026-05-01 15:27 | 48.35165 | 11.62578 | 3327 ft | 138 kts | 83° |
| 2026-05-01 15:27 | 48.35273 | 11.63965 | 3096 ft | 131 kts | 83° |
| 2026-05-01 15:27 | 48.35349 | 11.65323 | 2932 ft | 131 kts | 84° |
| 2026-05-01 15:28 | 48.35569 | 11.68057 | 2582 ft | 134 kts | 84° |
| 2026-05-01 15:28 | 48.35668 | 11.69465 | 2276 ft | 136 kts | 84° |
| 2026-05-01 15:28 | 48.35728 | 11.70882 | 2028 ft | 133 kts | 77° |
| 2026-05-01 15:29 | 48.36027 | 11.73667 | 1828 ft | 136 kts | 82° |
| 2026-05-01 15:29 | 48.36137 | 11.75078 | 1713 ft | 135 kts | 85° |
| 2026-05-01 15:29 | 48.36360 | 11.77893 | 1469 ft | 131 kts | 81° |
| 2026-05-01 15:30 | 48.36504 | 11.79933 | 1454 ft | 53 kts | 101° |
| 2026-05-01 15:31 | 48.36341 | 11.80521 | 1453 ft | 1 kts | 165° |
| 2026-05-01 15:31 | 48.36270 | 11.80310 | 1454 ft | 33 kts | 262° |
| 2026-05-01 15:32 | 48.36230 | 11.79759 | 1459 ft | 20 kts | 266° |
| 2026-05-01 15:32 | 48.36209 | 11.79415 | 1462 ft | 11 kts | 261° |
| 2026-05-01 15:33 | 48.36168 | 11.78927 | 1465 ft | 12 kts | 265° |
| 2026-05-01 15:34 | 48.36092 | 11.78505 | 1468 ft | 12 kts | 197° |